Time,TemperatureF,DewpointF,PressureIn,WindDirection,WindDirectionDegrees,WindSpeedMPH,WindSpeedGustMPH,Humidity,HourlyPrecipIn,Conditions,Clouds,dailyrainin,SoftwareType,DateUTC
2013-08-13 00:00:00,65.0,62.9,29.50,SSW,200,0.0,0.0,93,0.00,,,0.00,Wunderground v.1.15,2013-08-13 05:00:00,
2013-08-13 00:06:00,64.9,62.8,29.50,SSW,200,0.0,0.0,93,0.00,,,0.00,Wunderground v.1.15,2013-08-13 05:06:00,
2013-08-13 00:11:00,64.9,62.8,29.50,SSW,200,0.0,0.0,93,0.00,,,0.00,Wunderground v.1.15,2013-08-13 05:11:00,
2013-08-13 00:16:00,64.8,62.7,29.50,SSW,200,0.0,0.0,93,0.00,,,0.00,Wunderground v.1.15,2013-08-13 05:16:00,
2013-08-13 00:21:00,64.7,62.6,29.50,SSW,200,0.0,0.0,93,0.00,,,0.00,Wunderground v.1.15,2013-08-13 05:21:00,
2013-08-13 00:27:00,64.7,62.9,29.50,SSW,200,0.0,0.0,94,0.00,,,0.00,Wunderground v.1.15,2013-08-13 05:27:00,
2013-08-13 00:32:00,64.6,62.8,29.50,SSW,200,0.0,0.0,94,0.00,,,0.00,Wunderground v.1.15,2013-08-13 05:32:00,
2013-08-13 00:37:00,64.7,62.9,29.50,SSW,200,0.0,0.0,94,0.00,,,0.00,Wunderground v.1.15,2013-08-13 05:37:00,
2013-08-13 00:43:00,64.6,62.8,29.50,SSW,200,0.0,0.0,94,0.00,,,0.00,Wunderground v.1.15,2013-08-13 05:43:00,
2013-08-13 00:48:00,64.5,62.7,29.49,SSW,200,0.0,0.0,94,0.00,,,0.00,Wunderground v.1.15,2013-08-13 05:48:00,
2013-08-13 01:00:00,64.3,62.2,29.49,SSW,200,0.0,0.0,93,0.00,,,0.00,Wunderground v.1.15,2013-08-13 06:00:00,
2013-08-13 01:06:00,64.3,62.5,29.49,SSW,200,0.0,0.0,94,0.00,,,0.00,Wunderground v.1.15,2013-08-13 06:06:00,
2013-08-13 01:17:00,64.4,62.3,29.49,SSW,200,0.0,0.0,93,0.00,,,0.00,Wunderground v.1.15,2013-08-13 06:17:00,
2013-08-13 01:23:00,64.3,62.5,29.49,SSW,200,0.0,2.0,94,0.00,,,0.00,Wunderground v.1.15,2013-08-13 06:23:00,
2013-08-13 01:28:00,64.3,62.5,29.49,SSW,200,0.0,2.0,94,0.00,,,0.00,Wunderground v.1.15,2013-08-13 06:28:00,
2013-08-13 01:34:00,64.2,62.4,29.50,SSW,200,0.0,0.0,94,0.00,,,0.00,Wunderground v.1.15,2013-08-13 06:34:00,
2013-08-13 01:39:00,64.1,62.3,29.50,SSW,200,0.0,0.0,94,0.00,,,0.00,Wunderground v.1.15,2013-08-13 06:39:00,
2013-08-13 01:44:00,64.1,62.3,29.49,SSW,200,0.0,0.0,94,0.00,,,0.00,Wunderground v.1.15,2013-08-13 06:44:00,
2013-08-13 01:50:00,64.0,62.2,29.49,SSW,200,0.0,0.0,94,0.00,,,0.00,Wunderground v.1.15,2013-08-13 06:50:00,
2013-08-13 01:55:00,63.9,62.1,29.50,SSW,200,0.0,0.0,94,0.00,,,0.00,Wunderground v.1.15,2013-08-13 06:55:00,
2013-08-13 02:00:00,63.9,62.1,29.49,SSW,200,0.0,0.0,94,0.00,,,0.00,Wunderground v.1.15,2013-08-13 07:00:00,
2013-08-13 02:06:00,63.8,62.0,29.50,SSW,200,0.0,0.0,94,0.00,,,0.00,Wunderground v.1.15,2013-08-13 07:06:00,
2013-08-13 02:11:00,63.7,61.9,29.49,SSW,200,0.0,0.0,94,0.00,,,0.00,Wunderground v.1.15,2013-08-13 07:11:00,
2013-08-13 02:16:00,63.6,61.8,29.49,SSW,200,0.0,0.0,94,0.00,,,0.00,Wunderground v.1.15,2013-08-13 07:16:00,
2013-08-13 02:22:00,63.6,61.8,29.49,SSW,200,0.0,0.0,94,0.00,,,0.00,Wunderground v.1.15,2013-08-13 07:22:00,
2013-08-13 02:37:00,63.3,61.5,29.49,SSW,200,0.0,0.0,94,0.00,,,0.00,Wunderground v.1.15,2013-08-13 07:37:00,
2013-08-13 02:43:00,63.2,61.4,29.49,SSW,200,0.0,0.0,94,0.00,,,0.00,Wunderground v.1.15,2013-08-13 07:43:00,
2013-08-13 02:48:00,63.1,61.3,29.49,SSW,200,0.0,0.0,94,0.00,,,0.00,Wunderground v.1.15,2013-08-13 07:48:00,
2013-08-13 02:54:00,63.0,61.2,29.49,SSW,200,0.0,0.0,94,0.00,,,0.00,Wunderground v.1.15,2013-08-13 07:54:00,
2013-08-13 02:59:00,62.9,61.1,29.50,SSW,200,0.0,2.0,94,0.00,,,0.00,Wunderground v.1.15,2013-08-13 07:59:00,
2013-08-13 03:05:00,62.7,60.9,29.51,SSW,200,0.0,0.0,94,0.00,,,0.00,Wunderground v.1.15,2013-08-13 08:05:00,
2013-08-13 03:11:00,62.6,60.8,29.50,SSW,200,1.0,3.0,94,0.00,,,0.00,Wunderground v.1.15,2013-08-13 08:11:00,
2013-08-13 03:16:00,62.6,60.8,29.50,SSW,200,0.0,3.0,94,0.00,,,0.00,Wunderground v.1.15,2013-08-13 08:16:00,
2013-08-13 03:21:00,62.5,60.7,29.50,SSW,200,0.0,0.0,94,0.00,,,0.00,Wunderground v.1.15,2013-08-13 08:21:00,
2013-08-13 03:27:00,62.4,60.7,29.50,SSW,200,0.0,3.0,94,0.00,,,0.00,Wunderground v.1.15,2013-08-13 08:27:00,
2013-08-13 03:32:00,62.4,60.7,29.50,SSW,200,0.0,0.0,94,0.00,,,0.00,Wunderground v.1.15,2013-08-13 08:32:00,
2013-08-13 03:37:00,62.3,60.6,29.50,SSW,200,0.0,0.0,94,0.00,,,0.00,Wunderground v.1.15,2013-08-13 08:37:00,
2013-08-13 03:43:00,62.2,60.5,29.50,SSW,200,0.0,0.0,94,0.00,,,0.00,Wunderground v.1.15,2013-08-13 08:43:00,
2013-08-13 03:48:00,62.1,60.4,29.50,SSW,200,0.0,2.0,94,0.00,,,0.00,Wunderground v.1.15,2013-08-13 08:48:00,
2013-08-13 03:54:00,62.2,60.5,29.49,SSW,200,0.0,2.0,94,0.00,,,0.00,Wunderground v.1.15,2013-08-13 08:54:00,
2013-08-13 03:59:00,62.0,60.3,29.49,SSW,200,0.0,2.0,94,0.00,,,0.00,Wunderground v.1.15,2013-08-13 08:59:00,
2013-08-13 04:05:00,61.9,60.2,29.49,SSW,200,0.0,1.0,94,0.00,,,0.00,Wunderground v.1.15,2013-08-13 09:05:00,
2013-08-13 04:10:00,61.8,60.1,29.50,SSW,200,0.0,0.0,94,0.00,,,0.00,Wunderground v.1.15,2013-08-13 09:10:00,
2013-08-13 04:15:00,61.7,60.0,29.50,SSW,200,0.0,0.0,94,0.00,,,0.00,Wunderground v.1.15,2013-08-13 09:15:00,
2013-08-13 04:21:00,61.7,60.0,29.50,SSW,200,0.0,0.0,94,0.00,,,0.00,Wunderground v.1.15,2013-08-13 09:21:00,
2013-08-13 04:26:00,61.6,59.9,29.50,SSW,200,0.0,0.0,94,0.00,,,0.00,Wunderground v.1.15,2013-08-13 09:26:00,
2013-08-13 04:41:00,61.4,59.7,29.50,SSW,200,0.0,0.0,94,0.00,,,0.00,Wunderground v.1.15,2013-08-13 09:41:00,
2013-08-13 04:46:00,61.3,59.6,29.51,SSW,200,0.0,0.0,94,0.00,,,0.00,Wunderground v.1.15,2013-08-13 09:46:00,
2013-08-13 04:52:00,61.2,59.5,29.50,SSW,200,0.0,0.0,94,0.00,,,0.00,Wunderground v.1.15,2013-08-13 09:52:00,
2013-08-13 04:57:00,61.1,59.1,29.50,SSW,200,0.0,0.0,93,0.00,,,0.00,Wunderground v.1.15,2013-08-13 09:57:00,
2013-08-13 05:03:00,61.0,59.0,29.50,SSW,200,0.0,0.0,93,0.00,,,0.00,Wunderground v.1.15,2013-08-13 10:03:00,
2013-08-13 05:08:00,60.9,58.9,29.50,SSW,200,0.0,0.0,93,0.00,,,0.00,Wunderground v.1.15,2013-08-13 10:08:00,
2013-08-13 05:13:00,60.8,58.8,29.51,SSW,200,0.0,0.0,93,0.00,,,0.00,Wunderground v.1.15,2013-08-13 10:13:00,
2013-08-13 05:19:00,60.8,58.8,29.51,SSW,200,0.0,0.0,93,0.00,,,0.00,Wunderground v.1.15,2013-08-13 10:19:00,
2013-08-13 05:24:00,60.7,58.7,29.51,SSW,200,0.0,0.0,93,0.00,,,0.00,Wunderground v.1.15,2013-08-13 10:24:00,
2013-08-13 05:29:00,60.6,58.9,29.52,SSW,200,0.0,2.0,94,0.00,,,0.00,Wunderground v.1.15,2013-08-13 10:29:00,
2013-08-13 05:34:00,60.6,58.9,29.51,SSW,200,0.0,2.0,94,0.00,,,0.00,Wunderground v.1.15,2013-08-13 10:34:00,
2013-08-13 05:40:00,60.5,58.5,29.52,SSW,200,1.0,1.0,93,0.00,,,0.00,Wunderground v.1.15,2013-08-13 10:40:00,
2013-08-13 05:45:00,60.5,58.5,29.52,SSW,200,1.0,1.0,93,0.00,,,0.00,Wunderground v.1.15,2013-08-13 10:45:00,
2013-08-13 05:50:00,60.4,58.4,29.52,SSW,200,0.0,0.0,93,0.00,,,0.00,Wunderground v.1.15,2013-08-13 10:50:00,
2013-08-13 05:56:00,60.4,58.4,29.52,SSW,200,0.0,0.0,93,0.00,,,0.00,Wunderground v.1.15,2013-08-13 10:56:00,
2013-08-13 06:01:00,60.3,58.3,29.52,SSW,200,0.0,0.0,93,0.00,,,0.00,Wunderground v.1.15,2013-08-13 11:01:00,
2013-08-13 06:07:00,60.3,58.3,29.52,SSW,200,0.0,0.0,93,0.00,,,0.00,Wunderground v.1.15,2013-08-13 11:07:00,
2013-08-13 06:13:00,60.4,58.4,29.52,SSW,200,0.0,0.0,93,0.00,,,0.00,Wunderground v.1.15,2013-08-13 11:13:00,
2013-08-13 06:18:00,60.3,58.3,29.52,SSW,200,0.0,0.0,93,0.00,,,0.00,Wunderground v.1.15,2013-08-13 11:18:00,
2013-08-13 06:23:00,60.2,58.2,29.52,SSW,200,0.0,0.0,93,0.00,,,0.00,Wunderground v.1.15,2013-08-13 11:23:00,
2013-08-13 06:40:00,60.1,58.1,29.52,SSW,200,0.0,0.0,93,0.00,,,0.00,Wunderground v.1.15,2013-08-13 11:40:00,
2013-08-13 06:46:00,60.1,58.1,29.52,SSW,200,0.0,0.0,93,0.00,,,0.00,Wunderground v.1.15,2013-08-13 11:46:00,
2013-08-13 07:00:00,60.1,58.1,29.53,SSW,200,0.0,0.0,93,0.00,,,0.00,Wunderground v.1.15,2013-08-13 12:00:00,
2013-08-13 07:16:00,60.3,58.3,29.53,SSW,200,0.0,0.0,93,0.00,,,0.00,Wunderground v.1.15,2013-08-13 12:16:00,
2013-08-13 07:21:00,60.4,58.4,29.53,SSW,200,0.0,0.0,93,0.00,,,0.00,Wunderground v.1.15,2013-08-13 12:21:00,
2013-08-13 07:27:00,60.6,58.6,29.54,SSW,200,0.0,0.0,93,0.00,,,0.00,Wunderground v.1.15,2013-08-13 12:27:00,
2013-08-13 07:32:00,60.7,58.7,29.53,SSW,200,0.0,0.0,93,0.00,,,0.00,Wunderground v.1.15,2013-08-13 12:32:00,
2013-08-13 07:37:00,60.8,58.8,29.54,SSW,200,0.0,0.0,93,0.00,,,0.00,Wunderground v.1.15,2013-08-13 12:37:00,
2013-08-13 07:43:00,61.0,59.0,29.54,SSW,200,0.0,0.0,93,0.00,,,0.00,Wunderground v.1.15,2013-08-13 12:43:00,
2013-08-13 07:48:00,61.2,59.2,29.54,SSW,200,0.0,0.0,93,0.00,,,0.00,Wunderground v.1.15,2013-08-13 12:48:00,
2013-08-13 07:53:00,61.4,59.4,29.54,SSW,200,0.0,0.0,93,0.00,,,0.00,Wunderground v.1.15,2013-08-13 12:53:00,
2013-08-13 07:59:00,61.6,59.6,29.54,SSW,200,0.0,1.0,93,0.00,,,0.00,Wunderground v.1.15,2013-08-13 12:59:00,
2013-08-13 08:04:00,61.8,59.8,29.54,SSW,200,0.0,0.0,93,0.00,,,0.00,Wunderground v.1.15,2013-08-13 13:04:00,
2013-08-13 08:05:00,61.9,59.9,29.54,SSW,200,0.0,3.0,93,0.00,,,0.00,Wunderground v.1.15,2013-08-13 13:05:00,
2013-08-13 08:11:00,62.3,59.9,29.54,SSW,200,0.0,0.0,92,0.00,,,0.00,Wunderground v.1.15,2013-08-13 13:11:00,
2013-08-13 08:16:00,62.7,60.3,29.55,SSW,200,0.0,3.0,92,0.00,,,0.00,Wunderground v.1.15,2013-08-13 13:16:00,
2013-08-13 08:21:00,63.1,60.4,29.55,SSW,200,0.0,0.0,91,0.00,,,0.00,Wunderground v.1.15,2013-08-13 13:21:00,
2013-08-13 08:27:00,63.3,60.3,29.56,SSW,200,0.0,2.0,90,0.00,,,0.00,Wunderground v.1.15,2013-08-13 13:27:00,
2013-08-13 08:32:00,63.6,60.6,29.56,SSW,200,0.0,3.0,90,0.00,,,0.00,Wunderground v.1.15,2013-08-13 13:32:00,
2013-08-13 08:37:00,64.0,60.7,29.56,SSW,200,0.0,4.0,89,0.00,,,0.00,Wunderground v.1.15,2013-08-13 13:37:00,
2013-08-13 08:49:00,-999.9,-99.9,29.56,SSW,200,0.0,0.0,88,0.00,,,0.00,Wunderground v.1.15,2013-08-13 13:49:00,
2013-08-13 08:54:00,64.8,61.2,29.57,SSW,200,0.0,0.0,88,0.00,,,0.00,Wunderground v.1.15,2013-08-13 13:54:00,
2013-08-13 08:59:00,65.2,61.6,29.57,SSW,200,0.0,0.0,88,0.00,,,0.00,Wunderground v.1.15,2013-08-13 13:59:00,
2013-08-13 09:05:00,65.4,61.4,29.57,SSW,200,0.0,0.0,87,0.00,,,0.00,Wunderground v.1.15,2013-08-13 14:05:00,
2013-08-13 09:10:00,65.8,61.8,29.58,SSW,200,0.0,0.0,87,0.00,,,0.00,Wunderground v.1.15,2013-08-13 14:10:00,
2013-08-13 09:16:00,66.3,62.0,29.58,SSW,200,0.0,0.0,86,0.00,,,0.00,Wunderground v.1.15,2013-08-13 14:16:00,
2013-08-13 09:22:00,66.6,61.3,29.58,SSW,200,0.0,5.0,83,0.00,,,0.00,Wunderground v.1.15,2013-08-13 14:22:00,
2013-08-13 09:27:00,66.8,61.1,29.58,SSW,200,0.0,5.0,82,0.00,,,0.00,Wunderground v.1.15,2013-08-13 14:27:00,
2013-08-13 09:33:00,67.0,61.3,29.58,SSW,200,0.0,2.0,82,0.00,,,0.00,Wunderground v.1.15,2013-08-13 14:33:00,
2013-08-13 09:38:00,67.3,61.3,29.58,SSW,200,0.0,2.0,81,0.00,,,0.00,Wunderground v.1.15,2013-08-13 14:38:00,
2013-08-13 09:43:00,67.4,61.7,29.58,SSW,200,0.0,0.0,82,0.00,,,0.00,Wunderground v.1.15,2013-08-13 14:43:00,
2013-08-13 09:48:00,-999.9,-99.9,29.58,SSW,200,0.0,0.0,82,0.00,,,0.00,Wunderground v.1.15,2013-08-13 14:48:00,
2013-08-13 09:54:00,67.7,61.7,29.58,SSW,200,0.0,0.0,81,0.00,,,0.00,Wunderground v.1.15,2013-08-13 14:54:00,
2013-08-13 10:00:00,68.0,61.6,29.58,SSW,200,0.0,0.0,80,0.00,,,0.00,Wunderground v.1.15,2013-08-13 15:00:00,
2013-08-13 10:06:00,68.2,61.8,29.59,SSW,200,0.0,2.0,80,0.00,,,0.00,Wunderground v.1.15,2013-08-13 15:06:00,
2013-08-13 10:12:00,68.5,61.7,29.59,SSW,200,0.0,0.0,79,0.00,,,0.00,Wunderground v.1.15,2013-08-13 15:12:00,
2013-08-13 10:17:00,68.7,61.6,29.59,SSW,200,1.0,3.0,78,0.00,,,0.00,Wunderground v.1.15,2013-08-13 15:17:00,
2013-08-13 10:23:00,68.9,62.5,29.59,SSW,200,1.0,1.0,80,0.00,,,0.00,Wunderground v.1.15,2013-08-13 15:23:00,
2013-08-13 10:28:00,-999.9,-99.9,29.59,SSW,200,0.0,1.0,255,0.00,,,0.00,Wunderground v.1.15,2013-08-13 15:28:00,
2013-08-13 10:33:00,69.4,62.2,29.59,SSW,200,0.0,0.0,78,0.00,,,0.00,Wunderground v.1.15,2013-08-13 15:33:00,
2013-08-13 10:38:00,69.8,-99.9,29.59,SSW,200,0.0,0.0,255,0.00,,,0.00,Wunderground v.1.15,2013-08-13 15:38:00,
2013-08-13 10:39:00,69.7,-99.9,29.59,SSW,200,0.0,0.0,255,0.00,,,0.00,Wunderground v.1.15,2013-08-13 15:39:00,
2013-08-13 10:44:00,69.8,62.3,29.59,SSW,200,0.0,0.0,77,0.00,,,0.00,Wunderground v.1.15,2013-08-13 15:44:00,
2013-08-13 10:49:00,-999.9,-99.9,29.59,SSW,200,0.0,0.0,77,0.00,,,0.00,Wunderground v.1.15,2013-08-13 15:49:00,
2013-08-13 10:54:00,70.6,62.7,29.59,SSW,200,0.0,4.0,76,0.00,,,0.00,Wunderground v.1.15,2013-08-13 15:54:00,
2013-08-13 11:00:00,71.1,62.4,29.60,SSW,200,0.0,0.0,74,0.00,,,0.01,Wunderground v.1.15,2013-08-13 16:00:00,
2013-08-13 11:06:00,71.5,-99.9,29.59,SSW,200,0.0,1.0,255,0.00,,,0.01,Wunderground v.1.15,2013-08-13 16:06:00,
2013-08-13 11:25:00,71.5,63.2,29.60,SSW,200,0.0,0.0,75,0.00,,,0.01,Wunderground v.1.15,2013-08-13 16:25:00,
2013-08-13 11:31:00,71.4,63.4,29.60,SSW,200,0.0,0.0,76,0.00,,,0.01,Wunderground v.1.15,2013-08-13 16:31:00,
2013-08-13 11:36:00,71.8,64.2,29.60,SSW,200,0.0,0.0,77,0.00,,,0.01,Wunderground v.1.15,2013-08-13 16:36:00,
2013-08-13 11:41:00,71.9,63.5,29.60,SSW,200,0.0,3.0,75,0.00,,,0.01,Wunderground v.1.15,2013-08-13 16:41:00,
2013-08-13 11:47:00,71.9,63.5,29.61,SSW,200,1.0,1.0,75,0.00,,,0.01,Wunderground v.1.15,2013-08-13 16:47:00,
2013-08-13 11:52:00,72.2,64.2,29.60,SSW,200,0.0,0.0,76,0.00,,,0.01,Wunderground v.1.15,2013-08-13 16:52:00,
2013-08-13 11:57:00,72.4,62.9,29.61,SSW,200,1.0,4.0,72,0.00,,,0.01,Wunderground v.1.15,2013-08-13 16:57:00,
2013-08-13 12:03:00,72.8,64.4,29.60,SSW,200,0.0,4.0,75,0.00,,,0.01,Wunderground v.1.15,2013-08-13 17:03:00,
2013-08-13 12:08:00,73.3,64.9,29.61,SSW,200,0.0,4.0,75,0.00,,,0.01,Wunderground v.1.15,2013-08-13 17:08:00,
2013-08-13 12:14:00,73.8,64.6,29.61,SSW,200,0.0,0.0,73,0.00,,,0.01,Wunderground v.1.15,2013-08-13 17:14:00,
2013-08-13 12:19:00,74.2,63.4,29.61,SSW,200,1.0,1.0,69,0.00,,,0.01,Wunderground v.1.15,2013-08-13 17:19:00,
2013-08-13 12:24:00,74.5,64.1,29.61,SSW,200,1.0,3.0,70,0.00,,,0.01,Wunderground v.1.15,2013-08-13 17:24:00,
2013-08-13 12:30:00,74.6,64.2,29.61,SSW,200,1.0,2.0,70,0.00,,,0.01,Wunderground v.1.15,2013-08-13 17:30:00,
2013-08-13 12:35:00,74.8,64.4,29.61,SSW,200,2.0,4.0,70,0.00,,,0.01,Wunderground v.1.15,2013-08-13 17:35:00,
2013-08-13 12:40:00,74.9,64.0,29.61,SSW,200,1.0,1.0,69,0.00,,,0.01,Wunderground v.1.15,2013-08-13 17:40:00,
2013-08-13 12:46:00,75.0,64.5,29.61,SSW,200,0.0,1.0,70,0.00,,,0.01,Wunderground v.1.15,2013-08-13 17:46:00,
2013-08-13 12:51:00,75.0,64.5,29.61,SSW,200,0.0,1.0,70,0.00,,,0.01,Wunderground v.1.15,2013-08-13 17:51:00,
2013-08-13 12:56:00,75.0,65.4,29.61,SSW,200,0.0,4.0,72,0.00,,,0.01,Wunderground v.1.15,2013-08-13 17:56:00,
2013-08-13 13:02:00,75.0,64.5,29.61,SSW,200,1.0,2.0,70,0.00,,,0.01,Wunderground v.1.15,2013-08-13 18:02:00,
2013-08-13 13:07:00,75.2,65.6,29.60,SSW,200,1.0,5.0,72,0.00,,,0.01,Wunderground v.1.15,2013-08-13 18:07:00,
2013-08-13 13:13:00,75.5,65.0,29.60,SSW,200,1.0,3.0,70,0.00,,,0.01,Wunderground v.1.15,2013-08-13 18:13:00,
2013-08-13 13:18:00,75.6,64.3,29.60,SSW,200,2.0,4.0,68,0.00,,,0.01,Wunderground v.1.15,2013-08-13 18:18:00,
2013-08-13 13:23:00,76.0,64.2,29.60,SSW,205,1.0,5.0,67,0.00,,,0.01,Wunderground v.1.15,2013-08-13 18:23:00,
2013-08-13 13:28:00,76.3,64.1,29.60,SSW,208,1.0,5.0,66,0.00,,,0.01,Wunderground v.1.15,2013-08-13 18:28:00,
2013-08-13 13:34:00,76.7,63.6,29.60,SW,229,2.0,11.0,64,0.00,,,0.01,Wunderground v.1.15,2013-08-13 18:34:00,
2013-08-13 13:39:00,77.1,64.9,29.59,SW,230,2.0,11.0,66,0.00,,,0.01,Wunderground v.1.15,2013-08-13 18:39:00,
2013-08-13 13:45:00,-999.9,-99.9,29.59,SW,230,2.0,3.0,64,0.00,,,0.01,Wunderground v.1.15,2013-08-13 18:45:00,
2013-08-13 13:50:00,77.3,64.2,29.59,SW,230,2.0,2.0,64,0.00,,,0.01,Wunderground v.1.15,2013-08-13 18:50:00,
2013-08-13 13:55:00,77.5,63.9,29.59,SW,230,1.0,2.0,63,0.00,,,0.01,Wunderground v.1.15,2013-08-13 18:55:00,
2013-08-13 14:00:00,-999.9,-99.9,29.59,SW,231,1.0,1.0,60,0.00,,,0.01,Wunderground v.1.15,2013-08-13 19:00:00,
2013-08-13 14:06:00,-999.9,-99.9,29.59,SW,232,2.0,2.0,62,0.00,,,0.01,Wunderground v.1.15,2013-08-13 19:06:00,
2013-08-13 14:08:00,77.3,62.3,29.59,SW,232,2.0,4.0,60,0.00,,,0.01,Wunderground v.1.15,2013-08-13 19:08:00,
2013-08-13 14:13:00,77.7,61.7,29.58,SW,232,2.0,4.0,58,0.00,,,0.01,Wunderground v.1.15,2013-08-13 19:13:00,
2013-08-13 14:19:00,78.0,62.5,29.58,SW,232,2.0,6.0,59,0.00,,,0.01,Wunderground v.1.15,2013-08-13 19:19:00,
2013-08-13 14:25:00,78.0,63.0,29.58,SW,236,2.0,3.0,60,0.00,,,0.01,Wunderground v.1.15,2013-08-13 19:25:00,
2013-08-13 14:30:00,78.0,62.5,29.58,SW,236,2.0,2.0,59,0.00,,,0.01,Wunderground v.1.15,2013-08-13 19:30:00,
2013-08-13 14:35:00,77.5,62.5,29.58,SW,236,1.0,6.0,60,0.00,,,0.01,Wunderground v.1.15,2013-08-13 19:35:00,
2013-08-13 14:41:00,77.0,63.4,29.58,SW,236,1.0,1.0,63,0.00,,,0.01,Wunderground v.1.15,2013-08-13 19:41:00,
2013-08-13 14:46:00,77.2,61.8,29.58,SW,236,0.0,5.0,59,0.00,,,0.01,Wunderground v.1.15,2013-08-13 19:46:00,
2013-08-13 14:51:00,77.6,62.1,29.58,SW,236,1.0,1.0,59,0.00,,,0.01,Wunderground v.1.15,2013-08-13 19:51:00,
2013-08-13 14:57:00,78.0,61.5,29.58,WSW,237,1.0,4.0,57,0.00,,,0.01,Wunderground v.1.15,2013-08-13 19:57:00,
2013-08-13 15:02:00,77.7,61.7,29.58,WSW,237,1.0,1.0,58,0.00,,,0.01,Wunderground v.1.15,2013-08-13 20:02:00,
2013-08-13 15:07:00,-999.9,-99.9,29.58,WSW,244,1.0,4.0,255,0.00,,,0.01,Wunderground v.1.15,2013-08-13 20:07:00,
2013-08-13 15:13:00,77.5,60.6,29.58,WSW,244,2.0,6.0,56,0.00,,,0.01,Wunderground v.1.15,2013-08-13 20:13:00,
2013-08-13 15:18:00,77.5,60.6,29.58,WSW,244,1.0,6.0,56,0.00,,,0.01,Wunderground v.1.15,2013-08-13 20:18:00,
2013-08-13 15:27:00,77.6,61.7,29.58,WSW,244,1.0,2.0,58,0.00,,,0.01,Wunderground v.1.15,2013-08-13 20:27:00,
2013-08-13 15:33:00,77.2,59.8,29.58,WSW,244,1.0,4.0,55,0.00,,,0.01,Wunderground v.1.15,2013-08-13 20:33:00,
2013-08-13 15:38:00,77.0,60.1,29.58,WSW,244,1.0,4.0,56,0.00,,,0.01,Wunderground v.1.15,2013-08-13 20:38:00,
2013-08-13 15:44:00,77.2,-99.9,29.58,WSW,246,1.0,8.0,255,0.00,,,0.01,Wunderground v.1.15,2013-08-13 20:44:00,
2013-08-13 15:49:00,77.5,61.6,29.58,WSW,246,1.0,8.0,58,0.00,,,0.01,Wunderground v.1.15,2013-08-13 20:49:00,
2013-08-13 15:54:00,77.6,62.1,29.58,WSW,246,1.0,1.0,59,0.00,,,0.01,Wunderground v.1.15,2013-08-13 20:54:00,
2013-08-13 15:59:00,77.6,60.7,29.58,WSW,246,1.0,2.0,56,0.00,,,0.01,Wunderground v.1.15,2013-08-13 20:59:00,
2013-08-13 16:05:00,77.5,-99.9,29.57,WSW,246,1.0,5.0,255,0.00,,,0.01,Wunderground v.1.15,2013-08-13 21:05:00,
2013-08-13 16:10:00,77.4,60.0,29.57,WSW,246,0.0,0.0,55,0.00,,,0.01,Wunderground v.1.15,2013-08-13 21:10:00,
2013-08-13 16:16:00,-999.9,-99.9,29.57,WSW,246,0.0,1.0,255,0.00,,,0.01,Wunderground v.1.15,2013-08-13 21:16:00,
2013-08-13 16:21:00,78.2,60.7,29.57,WSW,246,1.0,2.0,55,0.00,,,0.01,Wunderground v.1.15,2013-08-13 21:21:00,
2013-08-13 16:26:00,77.9,60.4,29.57,WSW,246,1.0,4.0,55,0.00,,,0.01,Wunderground v.1.15,2013-08-13 21:26:00,
2013-08-13 16:31:00,-999.9,-99.9,29.57,WSW,246,1.0,1.0,59,0.00,,,0.01,Wunderground v.1.15,2013-08-13 21:31:00,
2013-08-13 16:37:00,77.9,60.4,29.57,WSW,246,0.0,2.0,55,0.00,,,0.01,Wunderground v.1.15,2013-08-13 21:37:00,
2013-08-13 16:42:00,78.0,-99.9,29.57,WSW,246,1.0,3.0,255,0.00,,,0.01,Wunderground v.1.15,2013-08-13 21:42:00,
2013-08-13 16:47:00,77.8,61.3,29.57,WSW,246,1.0,5.0,57,0.00,,,0.01,Wunderground v.1.15,2013-08-13 21:47:00,
2013-08-13 16:53:00,77.7,61.7,29.57,WSW,246,1.0,1.0,58,0.00,,,0.01,Wunderground v.1.15,2013-08-13 21:53:00,
2013-08-13 16:58:00,77.7,61.3,29.57,WSW,246,2.0,10.0,57,0.00,,,0.01,Wunderground v.1.15,2013-08-13 21:58:00,
2013-08-13 17:04:00,77.6,61.2,29.57,WSW,248,2.0,11.0,57,0.00,,,0.01,Wunderground v.1.15,2013-08-13 22:04:00,
2013-08-13 17:09:00,77.4,61.9,29.57,WSW,248,2.0,11.0,59,0.00,,,0.01,Wunderground v.1.15,2013-08-13 22:09:00,
2013-08-13 17:14:00,77.7,-99.9,29.56,WSW,248,0.0,1.0,255,0.00,,,0.01,Wunderground v.1.15,2013-08-13 22:14:00,
2013-08-13 17:20:00,77.6,60.7,29.57,WSW,248,0.0,0.0,56,0.00,,,0.01,Wunderground v.1.15,2013-08-13 22:20:00,
2013-08-13 17:25:00,77.5,62.5,29.56,WSW,248,0.0,4.0,60,0.00,,,0.01,Wunderground v.1.15,2013-08-13 22:25:00,
2013-08-13 17:31:00,-999.9,-99.9,29.56,WSW,248,1.0,1.0,59,0.00,,,0.01,Wunderground v.1.15,2013-08-13 22:31:00,
2013-08-13 17:37:00,77.1,59.7,29.56,WSW,248,1.0,4.0,55,0.00,,,0.01,Wunderground v.1.15,2013-08-13 22:37:00,
2013-08-13 17:42:00,77.0,59.6,29.56,WSW,248,1.0,3.0,55,0.00,,,0.01,Wunderground v.1.15,2013-08-13 22:42:00,
2013-08-13 17:48:00,77.1,59.7,29.57,WSW,248,1.0,6.0,55,0.00,,,0.01,Wunderground v.1.15,2013-08-13 22:48:00,
2013-08-13 17:53:00,76.8,58.4,29.56,WSW,248,1.0,5.0,53,0.00,,,0.01,Wunderground v.1.15,2013-08-13 22:53:00,
2013-08-13 17:59:00,-999.9,-99.9,29.56,WSW,248,1.0,5.0,56,0.00,,,0.01,Wunderground v.1.15,2013-08-13 22:59:00,
2013-08-13 18:05:00,76.6,59.7,29.57,WSW,248,0.0,1.0,56,0.00,,,0.01,Wunderground v.1.15,2013-08-13 23:05:00,
2013-08-13 18:10:00,76.4,60.0,29.57,WSW,248,1.0,1.0,57,0.00,,,0.01,Wunderground v.1.15,2013-08-13 23:10:00,
2013-08-13 18:16:00,76.1,59.8,29.57,WSW,248,1.0,1.0,57,0.00,,,0.01,Wunderground v.1.15,2013-08-13 23:16:00,
2013-08-13 18:21:00,76.0,59.2,29.57,WSW,248,0.0,1.0,56,0.00,,,0.01,Wunderground v.1.15,2013-08-13 23:21:00,
2013-08-13 18:26:00,75.8,58.5,29.57,WSW,248,0.0,1.0,55,0.00,,,0.01,Wunderground v.1.15,2013-08-13 23:26:00,
2013-08-13 18:31:00,75.5,58.2,29.57,West,272,1.0,1.0,55,0.00,,,0.01,Wunderground v.1.15,2013-08-13 23:31:00,
2013-08-13 18:37:00,74.9,59.1,29.56,West,272,2.0,8.0,58,0.00,,,0.01,Wunderground v.1.15,2013-08-13 23:37:00,
2013-08-13 18:42:00,74.6,58.4,29.57,West,272,2.0,2.0,57,0.00,,,0.01,Wunderground v.1.15,2013-08-13 23:42:00,
2013-08-13 18:48:00,74.1,58.9,29.57,West,272,1.0,2.0,59,0.00,,,0.01,Wunderground v.1.15,2013-08-13 23:48:00,
2013-08-13 18:54:00,73.7,58.9,29.57,West,272,0.0,1.0,60,0.00,,,0.01,Wunderground v.1.15,2013-08-13 23:54:00,
2013-08-13 18:59:00,73.3,59.5,29.57,West,272,1.0,5.0,62,0.00,,,0.01,Wunderground v.1.15,2013-08-13 23:59:00,
2013-08-13 19:05:00,72.9,58.7,29.57,West,272,0.0,5.0,61,0.00,,,0.01,Wunderground v.1.15,2013-08-14 00:05:00,
2013-08-13 19:11:00,72.5,59.2,29.57,West,272,1.0,2.0,63,0.00,,,0.01,Wunderground v.1.15,2013-08-14 00:11:00,
2013-08-13 19:16:00,72.0,58.7,29.57,West,272,1.0,2.0,63,0.00,,,0.01,Wunderground v.1.15,2013-08-14 00:16:00,
2013-08-13 19:22:00,71.5,58.2,29.57,West,272,0.0,0.0,63,0.00,,,0.01,Wunderground v.1.15,2013-08-14 00:22:00,
2013-08-13 19:27:00,71.2,58.4,29.58,West,272,0.0,0.0,64,0.00,,,0.01,Wunderground v.1.15,2013-08-14 00:27:00,
2013-08-13 19:33:00,70.9,59.0,29.58,West,272,0.0,1.0,66,0.00,,,0.01,Wunderground v.1.15,2013-08-14 00:33:00,
2013-08-13 19:38:00,70.5,58.6,29.58,West,272,0.0,5.0,66,0.00,,,0.01,Wunderground v.1.15,2013-08-14 00:38:00,
2013-08-13 19:43:00,70.1,59.0,29.58,West,272,1.0,1.0,68,0.00,,,0.01,Wunderground v.1.15,2013-08-14 00:43:00,
2013-08-13 19:49:00,69.6,58.2,29.58,West,272,0.0,2.0,67,0.00,,,0.01,Wunderground v.1.15,2013-08-14 00:49:00,
2013-08-13 20:01:00,68.9,56.6,29.59,West,272,1.0,16.0,65,0.00,,,0.01,Wunderground v.1.15,2013-08-14 01:01:00,
2013-08-13 20:07:00,68.7,57.3,29.59,West,272,0.0,16.0,67,0.00,,,0.01,Wunderground v.1.15,2013-08-14 01:07:00,
2013-08-13 20:12:00,68.4,56.6,29.59,West,272,0.0,0.0,66,0.00,,,0.01,Wunderground v.1.15,2013-08-14 01:12:00,
2013-08-13 20:21:00,68.0,57.0,29.59,West,272,0.0,0.0,68,0.00,,,0.01,Wunderground v.1.15,2013-08-14 01:21:00,
2013-08-13 20:30:00,67.6,56.2,29.59,West,272,0.0,0.0,67,0.00,,,0.01,Wunderground v.1.15,2013-08-14 01:30:00,
2013-08-13 20:36:00,67.1,57.0,29.59,West,272,0.0,0.0,70,0.00,,,0.01,Wunderground v.1.15,2013-08-14 01:36:00,
2013-08-13 20:41:00,66.7,57.4,29.59,West,272,0.0,0.0,72,0.00,,,0.01,Wunderground v.1.15,2013-08-14 01:41:00,
2013-08-13 20:52:00,65.9,57.0,29.60,West,272,0.0,1.0,73,0.00,,,0.01,Wunderground v.1.15,2013-08-14 01:52:00,
2013-08-13 20:58:00,65.6,56.7,29.60,West,272,0.0,1.0,73,0.00,,,0.01,Wunderground v.1.15,2013-08-14 01:58:00,
2013-08-13 21:03:00,65.4,55.4,29.60,West,272,0.0,0.0,70,0.00,,,0.01,Wunderground v.1.15,2013-08-14 02:03:00,
2013-08-13 21:09:00,65.2,55.9,29.61,West,272,0.0,0.0,72,0.00,,,0.01,Wunderground v.1.15,2013-08-14 02:09:00,
2013-08-13 21:14:00,65.0,56.1,29.61,West,272,0.0,0.0,73,0.00,,,0.01,Wunderground v.1.15,2013-08-14 02:14:00,
2013-08-13 21:19:00,64.8,56.3,29.61,West,272,0.0,0.0,74,0.00,,,0.01,Wunderground v.1.15,2013-08-14 02:19:00,
2013-08-13 21:25:00,64.5,56.8,29.61,West,272,0.0,0.0,76,0.00,,,0.01,Wunderground v.1.15,2013-08-14 02:25:00,
2013-08-13 21:30:00,64.3,56.2,29.61,West,272,0.0,0.0,75,0.00,,,0.01,Wunderground v.1.15,2013-08-14 02:30:00,
2013-08-13 21:35:00,-90.0,-93.5,29.62,West,272,0.0,0.0,76,0.00,,,0.01,Wunderground v.1.15,2013-08-14 02:35:00,
2013-08-13 21:41:00,63.8,56.1,29.62,West,272,0.0,0.0,76,0.00,,,0.01,Wunderground v.1.15,2013-08-14 02:41:00,
2013-08-13 21:46:00,63.4,56.1,29.63,West,272,0.0,4.0,77,0.00,,,0.01,Wunderground v.1.15,2013-08-14 02:46:00,
2013-08-13 21:52:00,63.2,55.9,29.63,West,272,0.0,0.0,77,0.00,,,0.01,Wunderground v.1.15,2013-08-14 02:52:00,
2013-08-13 21:57:00,63.3,56.3,29.62,West,272,0.0,4.0,78,0.00,,,0.01,Wunderground v.1.15,2013-08-14 02:57:00,
2013-08-13 22:04:00,63.3,56.3,29.62,West,272,1.0,1.0,78,0.00,,,0.01,Wunderground v.1.15,2013-08-14 03:04:00,
2013-08-13 22:10:00,-90.0,-93.7,29.63,West,272,0.0,1.0,75,0.00,,,0.01,Wunderground v.1.15,2013-08-14 03:10:00,
2013-08-13 22:15:00,63.3,56.7,29.63,West,272,0.0,1.0,79,0.00,,,0.01,Wunderground v.1.15,2013-08-14 03:15:00,
2013-08-13 22:21:00,-90.0,-93.3,29.63,West,272,0.0,2.0,77,0.00,,,0.01,Wunderground v.1.15,2013-08-14 03:21:00,
2013-08-13 22:26:00,63.2,55.9,29.63,West,272,0.0,2.0,77,0.00,,,0.01,Wunderground v.1.15,2013-08-14 03:26:00,
2013-08-13 22:31:00,63.1,56.1,29.64,West,272,0.0,0.0,78,0.00,,,0.01,Wunderground v.1.15,2013-08-14 03:31:00,
2013-08-13 22:37:00,63.0,56.0,29.64,West,272,0.0,0.0,78,0.00,,,0.01,Wunderground v.1.15,2013-08-14 03:37:00,
2013-08-13 22:42:00,63.2,56.2,29.64,West,272,0.0,0.0,78,0.00,,,0.01,Wunderground v.1.15,2013-08-14 03:42:00,
2013-08-13 22:47:00,62.7,56.1,29.64,West,272,0.0,0.0,79,0.00,,,0.01,Wunderground v.1.15,2013-08-14 03:47:00,
2013-08-13 22:53:00,62.7,55.7,29.64,West,272,0.0,0.0,78,0.00,,,0.01,Wunderground v.1.15,2013-08-14 03:53:00,
2013-08-13 22:58:00,62.7,55.0,29.65,West,272,0.0,0.0,76,0.00,,,0.01,Wunderground v.1.15,2013-08-14 03:58:00,
2013-08-13 23:01:00,62.4,55.4,29.65,West,272,0.0,0.0,78,0.00,,,0.01,Wunderground v.1.15,2013-08-14 04:01:00,
2013-08-13 23:02:00,62.3,55.4,29.65,West,272,0.0,4.0,78,0.00,,,0.01,Wunderground v.1.15,2013-08-14 04:02:00,
2013-08-13 23:03:00,62.3,55.4,29.65,West,272,0.0,4.0,78,0.00,,,0.01,Wunderground v.1.15,2013-08-14 04:03:00,
2013-08-13 23:05:00,62.3,56.0,29.65,West,272,0.0,4.0,80,0.00,,,0.01,Wunderground v.1.15,2013-08-14 04:05:00,
2013-08-13 23:07:00,62.3,56.0,29.65,West,272,0.0,4.0,80,0.00,,,0.01,Wunderground v.1.15,2013-08-14 04:07:00,
2013-08-13 23:12:00,63.2,56.9,29.65,West,272,0.0,2.0,80,0.00,,,0.01,Wunderground v.1.15,2013-08-14 04:12:00,
2013-08-13 23:17:00,63.4,-99.9,29.65,West,272,0.0,2.0,255,0.00,,,0.01,Wunderground v.1.15,2013-08-14 04:17:00,
2013-08-13 23:23:00,62.0,55.1,29.65,West,272,0.0,0.0,78,0.00,,,0.01,Wunderground v.1.15,2013-08-14 04:23:00,
2013-08-13 23:28:00,62.0,54.7,29.65,West,272,0.0,0.0,77,0.00,,,0.01,Wunderground v.1.15,2013-08-14 04:28:00,
2013-08-13 23:33:00,61.7,54.8,29.66,West,272,0.0,0.0,78,0.00,,,0.01,Wunderground v.1.15,2013-08-14 04:33:00,
2013-08-13 23:39:00,61.6,54.7,29.66,West,272,0.0,0.0,78,0.00,,,0.01,Wunderground v.1.15,2013-08-14 04:39:00,
2013-08-13 23:51:00,61.4,54.8,29.66,West,272,0.0,0.0,79,0.00,,,0.01,Wunderground v.1.15,2013-08-14 04:51:00,
2013-08-13 23:57:00,61.2,55.0,29.66,West,272,0.0,4.0,80,0.00,,,0.01,Wunderground v.1.15,2013-08-14 04:57:00,